»·PEaware :: N211FU KBFL-KMHV

N211FU :: KBFL-KMHV

FLIGHT INFORMATION

Flight Status: Arrived
Operator: Privately registered:
United States
More flights under this callsign
Pilot: Christopher D. (33180)
Aircraft: Diamond DA-62
(DA62)
More flights by this aircraft type
Origin: KBFL Meadows
United States
Destination: KMHV Mojave
United States
More flights between these airports :: More routes between these airports
Route:
File this flight plan on PilotEdge
Remarks:
Altitude:
(Current/Filed)
7,500ft
Speed:
(Current/Filed)
150kts
Departed: 16-Jan-21 09:28 AM
Arrived: 16-Jan-21 09:57 AM
Distance/Time
Traveled:
6799nm/0:29
Distance/Time
To Go:
Arrived

Flight Plot

Page will automatically refresh every two minutes.


Map Options




Map Legend


Flown Route
Filed Route
Departure Airport
Arrival Airport
Navaid (VOR, NDB)
Fix

Horizontal Profiles

Position Reports

Time Latitude Longitude Heading Altitude Ground
Speed
16-Jan-21 09:00 35.428358 -119.045098 80 479ft 0kts
16-Jan-21 09:01 35.428358 -119.045098 80 479ft 0kts
16-Jan-21 09:02 35.428358 -119.045098 80 479ft 0kts
16-Jan-21 09:03 35.428358 -119.045098 80 479ft 0kts
16-Jan-21 09:03 35.428358 -119.045098 80 479ft 0kts
16-Jan-21 09:05 35.428358 -119.045098 80 479ft 0kts
16-Jan-21 09:06 35.428358 -119.045098 80 479ft 0kts
16-Jan-21 09:06 35.428358 -119.045098 80 479ft 0kts
16-Jan-21 09:07 35.428358 -119.045098 80 479ft 0kts
16-Jan-21 09:09 35.428358 -119.045098 80 479ft 0kts
16-Jan-21 09:09 35.428358 -119.045098 80 479ft 0kts
16-Jan-21 09:10 35.428358 -119.045098 80 479ft 0kts
16-Jan-21 09:11 35.425686 -119.044677 233 471ft 0kts
16-Jan-21 09:12 35.425558 -119.045042 257 472ft 11kts
16-Jan-21 09:13 35.425674 -119.046125 289 475ft 0kts
16-Jan-21 09:15 0.000408 0.013975 0 3ft 0kts
16-Jan-21 09:16 0.000408 0.013975 0 3ft 0kts
16-Jan-21 09:17 0.000408 0.013975 0 3ft 0kts
16-Jan-21 09:19 35.429114 -119.046456 135 481ft 0kts
16-Jan-21 09:20 35.429114 -119.046456 135 481ft 0kts
16-Jan-21 09:21 35.429114 -119.046456 135 481ft 0kts
16-Jan-21 09:22 35.428957 -119.046304 135 480ft 0kts
16-Jan-21 09:23 35.428957 -119.046304 135 480ft 0kts
16-Jan-21 09:24 35.428919 -119.046258 135 480ft 3kts
16-Jan-21 09:25 35.425708 -119.044697 230 471ft 0kts
16-Jan-21 09:26 35.425622 -119.044845 238 471ft 5kts
16-Jan-21 09:27 35.427881 -119.049183 315 484ft 62kts
16-Jan-21 09:28 35.450831 -119.060698 65 1710ft 100kts
16-Jan-21 09:29 35.427970 -119.033157 144 2677ft 135kts
16-Jan-21 09:30 35.407411 -118.993201 116 3814ft 122kts
16-Jan-21 09:31 35.394135 -118.960977 114 5552ft 104kts
16-Jan-21 09:32 35.380815 -118.928414 113 6987ft 109kts
16-Jan-21 09:33 35.365196 -118.890230 114 7474ft 132kts
16-Jan-21 09:34 35.348131 -118.848572 114 7498ft 138kts
16-Jan-21 09:35 35.330491 -118.805566 115 7432ft 141kts
16-Jan-21 09:36 35.312950 -118.762851 115 7426ft 139kts
16-Jan-21 09:37 35.295532 -118.720474 115 7428ft 139kts
16-Jan-21 09:38 35.278126 -118.678184 116 7425ft 138kts
16-Jan-21 09:39 35.261018 -118.636675 116 7421ft 139kts
16-Jan-21 09:40 35.243588 -118.594461 116 7416ft 138kts
16-Jan-21 09:41 35.226225 -118.552420 116 7417ft 138kts
16-Jan-21 09:42 35.208925 -118.510571 115 7411ft 135kts
16-Jan-21 09:43 35.193126 -118.472436 116 7416ft 121kts
16-Jan-21 09:44 35.178377 -118.436890 115 7496ft 116kts
16-Jan-21 09:45 35.163553 -118.401188 115 7507ft 119kts
16-Jan-21 09:46 35.147840 -118.363374 115 7499ft 128kts
16-Jan-21 09:47 35.131548 -118.324221 115 7499ft 129kts
16-Jan-21 09:48 35.115166 -118.284870 116 7501ft 129kts
16-Jan-21 09:49 35.100059 -118.248638 115 6757ft 119kts
16-Jan-21 09:50 35.084756 -118.211965 116 5304ft 124kts
16-Jan-21 09:51 35.074137 -118.172393 94 4023ft 108kts
16-Jan-21 09:52 35.071725 -118.133374 91 3645ft 112kts
16-Jan-21 09:53 35.066633 -118.100001 167 3304ft 85kts
16-Jan-21 09:54 35.058418 -118.124769 275 2883ft 80kts
16-Jan-21 09:55 35.059195 -118.149628 267 2751ft 52kts
16-Jan-21 09:56 35.058299 -118.157746 181 2764ft 0kts
16-Jan-21 09:57 35.058299 -118.157746 181 2764ft 0kts
16-Jan-21 09:58 0.000408 0.013975 0 3ft 0kts
16-Jan-21 09:59 0.000408 0.013975 0 3ft 0kts
16-Jan-21 10:00 0.000408 0.013975 0 3ft 0kts
16-Jan-21 10:01 0.000408 0.013975 0 3ft 0kts
16-Jan-21 10:02 0.000408 0.013975 0 3ft 0kts
16-Jan-21 10:03 0.000408 0.013975 0 3ft 0kts
16-Jan-21 10:04 0.000408 0.013975 0 3ft 0kts
16-Jan-21 10:05 0.000408 0.013975 0 3ft 0kts
16-Jan-21 10:06 0.000408 0.013975 0 3ft 0kts
16-Jan-21 10:07 0.000408 0.013975 0 3ft 0kts
16-Jan-21 10:08 0.000408 0.013975 0 3ft 0kts
16-Jan-21 10:09 0.000408 0.013975 0 3ft 0kts
16-Jan-21 10:10 0.000408 0.013975 0 3ft 0kts

Navigation Log

Ident Type
Flight plan parsing failed, navigation log unavailable